createdAt,value
2016-09-24T00:00:08.307Z,0.00
2016-09-24T00:01:08.657Z,0.00
2016-09-24T00:02:09.042Z,0.00
2016-09-24T00:03:09.676Z,0.00
2016-09-24T00:04:10.152Z,0.00
2016-09-24T00:05:10.655Z,0.00
2016-09-24T00:06:11.169Z,0.00
2016-09-24T00:07:11.658Z,0.00
2016-09-24T00:08:12.017Z,0.00
2016-09-24T00:09:12.986Z,0.00
2016-09-24T00:10:13.311Z,0.00
2016-09-24T00:11:13.664Z,0.00
2016-09-24T00:12:14.009Z,0.00
2016-09-24T00:13:14.520Z,0.00
2016-09-24T00:14:15.309Z,0.00
2016-09-24T00:15:15.805Z,0.00
2016-09-24T00:16:16.041Z,0.00
2016-09-24T00:17:16.527Z,0.00
2016-09-24T00:18:17.334Z,0.00
2016-09-24T00:19:19.473Z,0.00
2016-09-24T00:20:17.870Z,0.00
2016-09-24T00:21:18.561Z,0.00
2016-09-24T00:22:18.876Z,0.00
2016-09-24T00:23:19.655Z,0.00
2016-09-24T00:24:20.164Z,0.00
2016-09-24T00:25:20.653Z,0.00
2016-09-24T00:26:21.004Z,0.00
2016-09-24T00:27:21.800Z,0.00
2016-09-24T00:28:22.005Z,0.00
2016-09-24T00:29:22.505Z,0.00
2016-09-24T00:30:23.151Z,0.00
2016-09-24T00:31:23.500Z,0.00
2016-09-24T00:32:24.042Z,0.00
2016-09-24T00:33:24.670Z,0.00
2016-09-24T00:34:25.339Z,0.00
2016-09-24T00:35:25.648Z,0.00
2016-09-24T00:36:26.443Z,0.00
2016-09-24T00:37:26.677Z,0.00
2016-09-24T00:38:27.158Z,0.00
2016-09-24T00:39:27.490Z,0.00
2016-09-24T00:40:28.297Z,0.00
2016-09-24T00:41:28.376Z,0.00
2016-09-24T00:42:29.296Z,0.00
2016-09-24T00:43:29.668Z,0.00
2016-09-24T00:44:29.862Z,0.00
2016-09-24T00:45:30.655Z,0.00
2016-09-24T00:46:30.862Z,0.00
2016-09-24T00:47:31.518Z,0.00
2016-09-24T00:48:32.166Z,0.00
2016-09-24T00:49:33.279Z,0.00
2016-09-24T00:50:32.868Z,0.00
2016-09-24T00:51:33.809Z,0.00
2016-09-24T00:52:34.161Z,0.00
2016-09-24T00:53:34.547Z,0.00
2016-09-24T00:54:35.007Z,0.00
2016-09-24T00:55:35.553Z,0.00
2016-09-24T00:56:37.074Z,0.00
2016-09-24T00:57:36.510Z,0.00
2016-09-24T00:58:36.909Z,0.00
2016-09-24T00:59:37.816Z,0.00
2016-09-24T01:00:38.498Z,0.00
2016-09-24T01:01:38.691Z,0.00
2016-09-24T01:02:39.020Z,0.00
2016-09-24T01:03:39.829Z,0.00
2016-09-24T01:04:39.895Z,0.00
2016-09-24T01:05:40.821Z,0.00
2016-09-24T01:06:40.879Z,0.00
2016-09-24T01:07:41.663Z,0.00
2016-09-24T01:08:42.314Z,0.00
2016-09-24T01:09:42.709Z,0.00
2016-09-24T01:10:42.888Z,0.00
2016-09-24T01:11:43.680Z,0.00
2016-09-24T01:12:44.177Z,0.00
2016-09-24T01:13:44.687Z,0.00
2016-09-24T01:14:45.162Z,0.00
2016-09-24T01:15:45.377Z,0.00
2016-09-24T01:16:46.453Z,0.00
2016-09-24T01:17:46.357Z,0.00
2016-09-24T01:18:47.314Z,0.00
2016-09-24T01:19:47.536Z,0.00
2016-09-24T01:20:48.313Z,0.00
2016-09-24T01:21:48.662Z,0.00
2016-09-24T01:22:49.192Z,0.00
2016-09-24T01:23:49.692Z,0.00
2016-09-24T01:24:49.887Z,0.00
2016-09-24T01:25:50.517Z,0.00
2016-09-24T01:26:51.172Z,0.00
2016-09-24T01:27:51.661Z,0.00
2016-09-24T01:28:52.015Z,0.00
2016-09-24T01:29:52.513Z,0.00
2016-09-24T01:30:53.157Z,0.00
2016-09-24T01:31:53.510Z,0.00
2016-09-24T01:32:53.860Z,0.00
2016-09-24T01:33:54.507Z,0.00
2016-09-24T01:34:55.156Z,0.00
2016-09-24T01:35:55.807Z,0.00
2016-09-24T01:36:56.001Z,0.00
2016-09-24T01:37:56.398Z,0.00
2016-09-24T01:38:57.159Z,0.00
2016-09-24T01:39:57.657Z,0.00
2016-09-24T01:40:58.153Z,0.00
2016-09-24T01:41:58.509Z,0.00
2016-09-24T01:42:59.307Z,0.00
2016-09-24T01:43:59.354Z,0.00
2016-09-24T01:45:00.004Z,0.00
2016-09-24T01:46:00.380Z,0.00
2016-09-24T01:47:01.153Z,0.00
2016-09-24T01:48:01.506Z,0.00
2016-09-24T01:49:02.346Z,0.00
2016-09-24T01:50:02.655Z,0.00
2016-09-24T01:51:03.300Z,0.00
2016-09-24T01:52:03.649Z,0.00
2016-09-24T01:53:06.401Z,0.00
2016-09-24T01:54:04.514Z,0.00
2016-09-24T01:55:04.844Z,0.00
2016-09-24T01:56:05.494Z,0.00
2016-09-24T01:57:06.306Z,0.00
2016-09-24T01:58:06.947Z,0.00
2016-09-24T01:59:07.156Z,0.00
2016-09-24T02:00:07.507Z,0.00
2016-09-24T02:01:08.308Z,0.00
2016-09-24T02:02:08.815Z,0.00
2016-09-24T02:03:09.015Z,0.00
2016-09-24T02:04:09.658Z,0.00
2016-09-24T02:05:10.172Z,0.00
2016-09-24T02:06:10.969Z,0.00
2016-09-24T02:07:11.160Z,0.00
2016-09-24T02:08:11.808Z,0.00
2016-09-24T02:09:11.859Z,0.00
2016-09-24T02:10:12.681Z,0.00
2016-09-24T02:11:13.018Z,0.00
2016-09-24T02:12:13.676Z,0.00
2016-09-24T02:13:14.175Z,0.00
2016-09-24T02:14:14.697Z,0.00
2016-09-24T02:15:15.313Z,0.00
2016-09-24T02:16:15.838Z,0.00
2016-09-24T02:17:16.457Z,0.00
2016-09-24T02:18:16.679Z,0.00
2016-09-24T02:19:17.183Z,0.00
2016-09-24T02:20:17.808Z,0.00
2016-09-24T02:21:18.025Z,0.00
2016-09-24T02:22:18.533Z,0.00
2016-09-24T02:23:19.334Z,0.00
2016-09-24T02:24:19.543Z,0.00
2016-09-24T02:25:20.028Z,0.00
2016-09-24T02:26:20.661Z,0.00
2016-09-24T02:27:21.028Z,0.00
2016-09-24T02:28:21.830Z,0.00
2016-09-24T02:29:22.160Z,0.00
2016-09-24T02:30:22.514Z,0.00
2016-09-24T02:31:23.036Z,0.00
2016-09-24T02:32:23.507Z,0.00
2016-09-24T02:33:24.170Z,0.00
2016-09-24T02:34:24.669Z,0.00
2016-09-24T02:35:25.027Z,0.00
2016-09-24T02:36:25.664Z,0.00
2016-09-24T02:37:26.037Z,0.00
2016-09-24T02:38:26.511Z,0.00
2016-09-24T02:39:27.521Z,0.00
2016-09-24T02:40:27.982Z,0.00
2016-09-24T02:41:28.333Z,0.00
2016-09-24T02:42:28.814Z,0.00
2016-09-24T02:43:29.036Z,0.00
2016-09-24T02:44:29.512Z,0.00
2016-09-24T02:45:30.318Z,0.00
2016-09-24T02:46:30.963Z,0.00
2016-09-24T02:47:31.610Z,0.00
2016-09-24T02:48:31.659Z,0.00
2016-09-24T02:49:32.180Z,0.00
2016-09-24T02:50:32.678Z,0.00
2016-09-24T02:51:33.037Z,0.00
2016-09-24T02:52:33.814Z,0.00
2016-09-24T02:53:34.463Z,0.00
2016-09-24T02:54:34.661Z,0.00
2016-09-24T02:55:35.159Z,0.00
2016-09-24T02:56:35.664Z,0.00
2016-09-24T02:57:36.307Z,0.00
2016-09-24T02:58:36.521Z,0.00
2016-09-24T02:59:37.027Z,0.00
2016-09-24T03:00:37.659Z,0.00
2016-09-24T03:01:37.882Z,0.00
2016-09-24T03:02:38.543Z,0.00
2016-09-24T03:03:38.855Z,0.00
2016-09-24T03:04:39.705Z,0.00
2016-09-24T03:05:40.451Z,0.00
2016-09-24T03:06:40.532Z,0.00
2016-09-24T03:07:41.012Z,0.00
2016-09-24T03:08:41.669Z,0.00
2016-09-24T03:09:42.302Z,0.00
2016-09-24T03:10:43.853Z,0.00
2016-09-24T03:11:43.168Z,0.00
2016-09-24T03:12:43.689Z,0.00
2016-09-24T03:13:44.028Z,0.00
2016-09-24T03:14:44.366Z,0.00
2016-09-24T03:15:45.337Z,0.00
2016-09-24T03:16:45.387Z,0.00
2016-09-24T03:17:46.315Z,0.00
2016-09-24T03:18:46.533Z,0.00
2016-09-24T03:19:47.190Z,0.00
2016-09-24T03:20:47.815Z,0.00
2016-09-24T03:21:48.043Z,0.00
2016-09-24T03:22:48.364Z,0.00
2016-09-24T03:23:49.038Z,0.00
2016-09-24T03:24:49.812Z,0.00
2016-09-24T03:25:50.310Z,0.00
2016-09-24T03:26:50.813Z,0.00
2016-09-24T03:27:51.505Z,0.00
2016-09-24T03:28:51.362Z,0.00
2016-09-24T03:29:52.158Z,0.00
2016-09-24T03:30:52.657Z,0.00
2016-09-24T03:31:53.159Z,0.00
2016-09-24T03:32:53.805Z,0.00
2016-09-24T03:33:54.006Z,0.00
2016-09-24T03:34:54.955Z,0.00
2016-09-24T03:35:55.313Z,0.00
2016-09-24T03:36:55.660Z,0.00
2016-09-24T03:37:56.030Z,0.00
2016-09-24T03:38:56.982Z,0.00
2016-09-24T03:39:57.033Z,0.00
2016-09-24T03:40:57.673Z,0.00
2016-09-24T03:41:58.159Z,0.00
2016-09-24T03:42:58.502Z,0.00
2016-09-24T03:43:59.307Z,0.00
2016-09-24T03:44:59.659Z,0.00
2016-09-24T03:45:59.883Z,0.00
2016-09-24T03:47:00.805Z,0.00
2016-09-24T03:48:01.167Z,0.00
2016-09-24T03:49:01.821Z,0.00
2016-09-24T03:50:02.312Z,0.00
2016-09-24T03:51:02.689Z,0.00
2016-09-24T03:52:03.168Z,0.00
2016-09-24T03:53:03.664Z,0.00
2016-09-24T03:54:04.158Z,0.00
2016-09-24T03:55:04.381Z,0.00
2016-09-24T03:56:05.161Z,0.00
2016-09-24T03:57:05.546Z,0.00
2016-09-24T03:58:06.023Z,0.00
2016-09-24T03:59:06.967Z,0.00
2016-09-24T04:00:07.013Z,0.00
2016-09-24T04:01:07.956Z,0.00
2016-09-24T04:02:08.007Z,0.00
2016-09-24T04:03:08.660Z,0.00
2016-09-24T04:04:09.311Z,0.00
2016-09-24T04:05:09.526Z,0.00
2016-09-24T04:06:10.010Z,0.00
2016-09-24T04:07:10.689Z,0.00
2016-09-24T04:08:11.030Z,0.00
2016-09-24T04:09:11.528Z,0.00
2016-09-24T04:10:12.019Z,0.00
2016-09-24T04:11:12.800Z,0.00
2016-09-24T04:12:13.306Z,0.00
2016-09-24T04:13:13.524Z,0.00
2016-09-24T04:14:14.162Z,0.00
2016-09-24T04:15:14.966Z,0.00
2016-09-24T04:16:15.030Z,0.00
2016-09-24T04:17:16.720Z,0.00
2016-09-24T04:18:16.460Z,0.00
2016-09-24T04:19:16.805Z,0.00
2016-09-24T04:20:17.450Z,0.00
2016-09-24T04:21:17.811Z,0.00
2016-09-24T04:22:18.301Z,0.00
2016-09-24T04:23:18.650Z,0.00
2016-09-24T04:24:18.859Z,0.00
2016-09-24T04:25:19.957Z,0.00
2016-09-24T04:26:19.850Z,0.00
2016-09-24T04:27:20.820Z,0.00
2016-09-24T04:28:21.026Z,0.00
2016-09-24T04:29:21.506Z,0.00
2016-09-24T04:30:22.167Z,0.00
2016-09-24T04:31:22.683Z,0.00
2016-09-24T04:32:23.312Z,0.00
2016-09-24T04:33:23.660Z,0.00
2016-09-24T04:34:24.465Z,0.00
2016-09-24T04:35:24.696Z,0.00
2016-09-24T04:36:25.164Z,0.00
2016-09-24T04:37:25.402Z,0.00
2016-09-24T04:38:26.017Z,0.00
2016-09-24T04:39:26.804Z,0.00
2016-09-24T04:40:26.871Z,0.00
2016-09-24T04:41:27.509Z,0.00
2016-09-24T04:42:28.008Z,0.00
2016-09-24T04:43:28.360Z,0.00
2016-09-24T04:44:29.036Z,0.00
2016-09-24T04:45:29.692Z,0.00
2016-09-24T04:46:30.190Z,0.00
2016-09-24T04:47:30.674Z,0.00
2016-09-24T04:48:31.174Z,0.00
2016-09-24T04:49:31.362Z,0.00
2016-09-24T04:50:32.304Z,0.00
2016-09-24T04:51:32.658Z,0.00
2016-09-24T04:52:33.180Z,0.00
2016-09-24T04:53:33.509Z,0.00
2016-09-24T04:54:34.190Z,0.00
2016-09-24T04:55:34.952Z,0.00
2016-09-24T04:56:35.169Z,0.00
2016-09-24T04:57:35.658Z,0.00
2016-09-24T04:58:36.326Z,0.00
2016-09-24T04:59:36.655Z,0.00
2016-09-24T05:00:37.158Z,0.00
2016-09-24T05:01:38.598Z,0.00
2016-09-24T05:02:38.007Z,0.00
2016-09-24T05:03:38.507Z,0.00
2016-09-24T05:04:39.035Z,0.00
2016-09-24T05:05:39.667Z,0.00
2016-09-24T05:06:40.331Z,0.00
2016-09-24T05:07:40.365Z,0.00
2016-09-24T05:08:41.328Z,0.00
2016-09-24T05:09:41.673Z,0.00
2016-09-24T05:10:42.311Z,0.00
2016-09-24T05:11:42.816Z,0.00
2016-09-24T05:12:43.008Z,0.00
2016-09-24T05:13:43.506Z,0.00
2016-09-24T05:14:44.170Z,0.00
2016-09-24T05:15:44.683Z,0.00
2016-09-24T05:16:45.006Z,0.00
2016-09-24T05:17:45.674Z,0.00
2016-09-24T05:18:46.178Z,0.00
2016-09-24T05:19:47.251Z,0.00
2016-09-24T05:20:47.500Z,0.00
2016-09-24T05:21:47.825Z,0.00
2016-09-24T05:22:48.163Z,0.00
2016-09-24T05:23:48.677Z,0.00
2016-09-24T05:24:49.145Z,0.00
2016-09-24T05:25:49.798Z,0.00
2016-09-24T05:26:51.504Z,0.00
2016-09-24T05:27:50.521Z,0.00
2016-09-24T05:28:51.180Z,0.00
2016-09-24T05:29:51.680Z,0.00
2016-09-24T05:30:52.019Z,0.00
2016-09-24T05:31:54.904Z,0.00
2016-09-24T05:32:53.015Z,0.00
2016-09-24T05:33:53.529Z,0.00
2016-09-24T05:34:53.995Z,1.00
2016-09-24T05:35:54.792Z,1.00
2016-09-24T05:36:55.759Z,1.00
2016-09-24T05:37:55.511Z,1.00
2016-09-24T05:38:56.135Z,1.00
2016-09-24T05:39:56.501Z,1.00
2016-09-24T05:40:56.855Z,1.00
2016-09-24T05:41:57.666Z,1.00
2016-09-24T05:42:58.177Z,1.00
2016-09-24T05:43:58.678Z,1.00
2016-09-24T05:44:59.301Z,1.00
2016-09-24T05:45:59.655Z,1.00
2016-09-24T05:47:00.326Z,2.00
2016-09-24T05:48:00.810Z,2.00
2016-09-24T05:49:01.176Z,2.00
2016-09-24T05:50:01.969Z,2.00
2016-09-24T05:51:02.147Z,2.00
2016-09-24T05:52:03.103Z,2.00
2016-09-24T05:53:02.861Z,2.00
2016-09-24T05:54:03.664Z,2.00
2016-09-24T05:55:04.442Z,2.00
2016-09-24T05:56:04.644Z,2.00
2016-09-24T05:57:04.998Z,2.00
2016-09-24T05:58:05.648Z,3.00
2016-09-24T05:59:06.017Z,3.00
2016-09-24T06:00:06.801Z,3.00
2016-09-24T06:01:07.004Z,3.00
2016-09-24T06:02:07.346Z,3.00
2016-09-24T06:03:08.298Z,3.00
2016-09-24T06:04:08.810Z,3.00
2016-09-24T06:05:09.479Z,3.00
2016-09-24T06:06:09.949Z,3.00
2016-09-24T06:07:10.170Z,3.00
2016-09-24T06:08:10.820Z,3.00
2016-09-24T06:09:11.323Z,3.00
2016-09-24T06:10:11.652Z,3.00
2016-09-24T06:11:11.870Z,3.00
2016-09-24T06:12:12.660Z,3.00
2016-09-24T06:13:13.019Z,3.00
2016-09-24T06:14:13.792Z,3.00
2016-09-24T06:15:14.300Z,3.00
2016-09-24T06:16:14.344Z,4.00
2016-09-24T06:17:16.650Z,4.00
2016-09-24T06:18:15.362Z,4.00
2016-09-24T06:19:16.023Z,4.00
2016-09-24T06:20:16.665Z,5.00
2016-09-24T06:21:17.024Z,5.00
2016-09-24T06:22:17.654Z,5.00
2016-09-24T06:23:18.178Z,5.00
2016-09-24T06:24:18.508Z,5.00
2016-09-24T06:25:19.155Z,5.00
2016-09-24T06:26:19.681Z,5.00
2016-09-24T06:27:19.881Z,5.00
2016-09-24T06:28:20.693Z,5.00
2016-09-24T06:29:21.354Z,5.00
2016-09-24T06:30:21.501Z,5.00
2016-09-24T06:31:22.028Z,5.00
2016-09-24T06:32:22.810Z,5.00
2016-09-24T06:33:23.324Z,6.00
2016-09-24T06:34:23.653Z,6.00
2016-09-24T06:35:23.997Z,7.00
2016-09-24T06:36:24.799Z,7.00
2016-09-24T06:37:25.297Z,7.00
2016-09-24T06:38:25.988Z,7.00
2016-09-24T06:39:26.172Z,7.00
2016-09-24T06:40:26.812Z,7.00
2016-09-24T06:41:27.161Z,8.00
2016-09-24T06:42:27.502Z,8.00
2016-09-24T06:43:28.147Z,8.00
2016-09-24T06:44:28.497Z,8.00
2016-09-24T06:45:29.151Z,9.00
2016-09-24T06:46:29.652Z,9.00
2016-09-24T06:47:30.018Z,8.00
2016-09-24T06:48:30.802Z,8.00
2016-09-24T06:49:31.298Z,8.00
2016-09-24T06:50:31.662Z,9.00
2016-09-24T06:51:31.995Z,9.00
2016-09-24T06:52:32.346Z,8.00
2016-09-24T06:53:33.168Z,8.00
2016-09-24T06:54:33.499Z,9.00
2016-09-24T06:55:34.003Z,9.00
2016-09-24T06:56:34.650Z,10.00
2016-09-24T06:57:35.163Z,10.00
2016-09-24T06:58:35.507Z,10.00
2016-09-24T06:59:36.451Z,10.00
2016-09-24T07:00:36.382Z,11.00
2016-09-24T07:01:39.103Z,12.00
2016-09-24T07:02:37.525Z,12.00
2016-09-24T07:03:38.312Z,12.00
2016-09-24T07:04:38.664Z,13.00
2016-09-24T07:05:39.002Z,13.00
2016-09-24T07:06:39.684Z,15.00
2016-09-24T07:07:40.747Z,13.00
2016-09-24T07:09:34.222Z,0.00
2016-09-24T07:10:34.726Z,14.00
2016-09-24T07:11:35.116Z,13.00
2016-09-24T07:12:35.732Z,14.00
2016-09-24T07:13:35.945Z,14.00
2016-09-24T07:14:38.237Z,13.00
2016-09-24T07:15:37.248Z,11.00
2016-09-24T07:16:37.740Z,11.00
2016-09-24T07:17:38.250Z,11.00
2016-09-24T07:18:39.642Z,10.00
2016-09-24T07:19:39.245Z,11.00
2016-09-24T07:20:39.740Z,11.00
2016-09-24T07:21:40.245Z,12.00
2016-09-24T07:22:40.760Z,12.00
2016-09-24T07:23:41.255Z,12.00
2016-09-24T07:24:41.001Z,11.00
2016-09-24T07:25:41.967Z,12.00
2016-09-24T07:26:41.855Z,13.00
2016-09-24T07:27:42.653Z,13.00
2016-09-24T07:28:43.001Z,15.00
2016-09-24T07:29:43.953Z,18.00
2016-09-24T07:30:44.025Z,19.00
2016-09-24T07:31:44.372Z,19.00
2016-09-24T07:32:45.317Z,16.00
2016-09-24T07:33:45.672Z,19.00
2016-09-24T07:35:47.289Z,23.00
2016-09-24T07:36:47.502Z,23.00
2016-09-24T07:37:47.518Z,23.00
2016-09-24T07:38:47.871Z,22.00
2016-09-24T07:39:48.390Z,23.00
2016-09-24T07:40:49.051Z,21.00
2016-09-24T07:42:50.170Z,24.00
2016-09-24T07:43:50.835Z,27.00
2016-09-24T07:44:52.368Z,27.00
2016-09-24T07:45:51.547Z,28.00
2016-09-24T07:46:52.042Z,27.00
2016-09-24T07:47:52.673Z,28.00
2016-09-24T07:48:52.926Z,28.00
2016-09-24T07:49:53.684Z,28.00
2016-09-24T07:50:54.183Z,28.00
2016-09-24T07:51:54.667Z,28.00
2016-09-24T07:52:55.025Z,28.00
2016-09-24T07:53:55.529Z,28.00
2016-09-24T07:54:55.873Z,28.00
2016-09-24T07:55:56.387Z,28.00
2016-09-24T07:56:57.206Z,28.00
2016-09-24T07:57:57.411Z,29.00
2016-09-24T07:58:57.951Z,28.00
2016-09-24T07:59:58.439Z,29.00
2016-09-24T08:00:58.949Z,29.00
2016-09-24T08:01:59.464Z,30.00
2016-09-24T08:02:59.969Z,30.00
2016-09-24T08:04:00.482Z,29.00
2016-09-24T08:05:00.997Z,29.00
2016-09-24T08:06:01.508Z,30.00
2016-09-24T08:07:02.024Z,29.00
2016-09-24T08:08:02.551Z,26.00
2016-09-24T08:09:03.061Z,22.00
2016-09-24T08:10:03.571Z,28.00
2016-09-24T08:11:04.088Z,30.00
2016-09-24T08:12:04.609Z,31.00
2016-09-24T08:13:05.117Z,31.00
2016-09-24T08:14:05.780Z,31.00
2016-09-24T08:15:06.292Z,31.00
2016-09-24T08:16:06.955Z,31.00
2016-09-24T08:17:07.167Z,32.00
2016-09-24T08:18:07.679Z,32.00
2016-09-24T08:19:09.995Z,32.00
2016-09-24T08:20:08.985Z,32.00
2016-09-24T08:21:09.366Z,32.00
2016-09-24T08:22:10.013Z,33.00
2016-09-24T08:23:10.185Z,32.00
2016-09-24T08:24:11.006Z,33.00
2016-09-24T08:25:11.537Z,33.00
2016-09-24T08:26:11.857Z,33.00
2016-09-24T08:27:12.203Z,33.00
2016-09-24T08:28:12.711Z,33.00
2016-09-24T08:29:13.221Z,33.00
2016-09-24T08:30:13.733Z,33.00
2016-09-24T08:31:14.248Z,33.00
2016-09-24T08:32:14.764Z,33.00
2016-09-24T08:33:15.269Z,33.00
2016-09-24T08:34:15.779Z,33.00
2016-09-24T08:35:16.290Z,33.00
2016-09-24T08:36:16.818Z,33.00
2016-09-24T08:37:17.318Z,34.00
2016-09-24T08:38:17.827Z,34.00
2016-09-24T08:39:18.341Z,34.00
2016-09-24T08:40:18.856Z,34.00
2016-09-24T08:41:19.367Z,34.00
2016-09-24T08:42:20.042Z,34.00
2016-09-24T08:43:20.391Z,35.00
2016-09-24T08:44:20.935Z,35.00
2016-09-24T08:45:21.420Z,36.00
2016-09-24T08:46:21.949Z,36.00
2016-09-24T08:47:25.147Z,35.00
2016-09-24T08:48:23.102Z,35.00
2016-09-24T08:49:24.530Z,34.00
2016-09-24T08:50:23.968Z,34.00
2016-09-24T08:51:24.773Z,36.00
2016-09-24T08:52:25.280Z,36.00
2016-09-24T08:53:25.627Z,36.00
2016-09-24T08:54:26.120Z,36.00
2016-09-24T08:55:26.497Z,36.00
2016-09-24T08:56:27.420Z,36.00
2016-09-24T08:57:27.824Z,35.00
2016-09-24T08:58:28.115Z,35.00
2016-09-24T08:59:29.070Z,35.00
2016-09-24T09:00:29.290Z,35.00
2016-09-24T09:01:29.773Z,35.00
2016-09-24T09:02:30.137Z,36.00
2016-09-24T09:03:30.777Z,36.00
2016-09-24T09:04:31.308Z,36.00
2016-09-24T09:05:31.630Z,36.00
2016-09-24T09:06:31.975Z,36.00
2016-09-24T09:07:32.769Z,35.00
2016-09-24T09:08:33.135Z,36.00
2016-09-24T09:09:33.622Z,37.00
2016-09-24T09:10:33.971Z,37.00
2016-09-24T09:11:34.789Z,37.00
2016-09-24T09:12:35.436Z,38.00
2016-09-24T09:13:35.485Z,37.00
2016-09-24T09:14:36.274Z,37.00
2016-09-24T09:15:36.939Z,37.00
2016-09-24T09:16:37.282Z,37.00
2016-09-24T09:17:37.504Z,37.00
2016-09-24T09:18:38.294Z,37.00
2016-09-24T09:19:38.817Z,37.00
2016-09-24T09:20:39.121Z,37.00
2016-09-24T09:21:39.777Z,37.00
2016-09-24T09:22:40.574Z,38.00
2016-09-24T09:23:40.655Z,38.00
2016-09-24T09:24:41.442Z,38.00
2016-09-24T09:25:41.838Z,37.00
2016-09-24T09:26:41.996Z,38.00
2016-09-24T09:27:42.513Z,39.00
2016-09-24T09:28:43.296Z,39.00
2016-09-24T09:29:43.832Z,39.00
2016-09-24T09:30:44.318Z,39.00
2016-09-24T09:31:44.496Z,39.00
2016-09-24T09:32:45.139Z,39.00
2016-09-24T09:33:45.810Z,39.00
2016-09-24T09:34:46.288Z,39.00
2016-09-24T09:35:46.816Z,39.00
2016-09-24T09:36:47.154Z,39.00
2016-09-24T09:37:47.494Z,39.00
2016-09-24T09:38:48.144Z,39.00
2016-09-24T09:39:48.787Z,40.00
2016-09-24T09:40:49.447Z,40.00
2016-09-24T09:41:49.798Z,40.00
2016-09-24T09:42:50.446Z,40.00
2016-09-24T09:43:50.521Z,40.00
2016-09-24T09:44:51.305Z,40.00
2016-09-24T09:45:51.506Z,40.00
2016-09-24T09:46:52.605Z,40.00
2016-09-24T09:47:52.671Z,40.00
2016-09-24T09:48:53.174Z,40.00
2016-09-24T09:49:53.650Z,40.00
2016-09-24T09:50:53.998Z,40.00
2016-09-24T09:51:54.813Z,40.00
2016-09-24T09:52:55.164Z,40.00
2016-09-24T09:53:56.097Z,41.00
2016-09-24T09:54:56.001Z,41.00
2016-09-24T09:55:56.792Z,42.00
2016-09-24T09:56:57.309Z,42.00
2016-09-24T09:57:57.793Z,42.00
2016-09-24T09:58:58.444Z,42.00
2016-09-24T09:59:58.661Z,41.00
2016-09-24T10:00:59.444Z,42.00
2016-09-24T10:02:00.118Z,42.00
2016-09-24T10:03:00.314Z,42.00
2016-09-24T10:04:00.515Z,42.00
2016-09-24T10:05:01.029Z,42.00
2016-09-24T10:06:01.560Z,43.00
2016-09-24T10:07:03.557Z,43.00
2016-09-24T10:08:02.573Z,43.00
2016-09-24T10:09:03.089Z,43.00
2016-09-24T10:10:03.614Z,43.00
2016-09-24T10:11:04.112Z,43.00
2016-09-24T10:12:04.627Z,43.00
2016-09-24T10:13:05.285Z,43.00
2016-09-24T10:14:05.647Z,43.00
2016-09-24T10:15:06.158Z,44.00
2016-09-24T10:16:06.673Z,43.00
2016-09-24T10:17:07.187Z,44.00
2016-09-24T10:18:07.699Z,43.00
2016-09-24T10:19:08.212Z,41.00
2016-09-24T10:20:08.741Z,43.00
2016-09-24T10:21:09.241Z,44.00
2016-09-24T10:22:09.754Z,44.00
2016-09-24T10:23:10.412Z,44.00
2016-09-24T10:24:10.781Z,44.00
2016-09-24T10:25:11.438Z,44.00
2016-09-24T10:26:11.801Z,44.00
2016-09-24T10:47:05.945Z,45.00
2016-09-24T10:48:06.432Z,45.00
2016-09-24T10:49:06.795Z,45.00
2016-09-24T10:50:07.311Z,45.00
2016-09-24T10:51:08.294Z,46.00
2016-09-24T10:52:08.636Z,46.00
2016-09-24T10:53:09.406Z,46.00
2016-09-24T10:54:09.622Z,45.00
2016-09-24T10:55:11.613Z,44.00
2016-09-24T10:56:10.308Z,45.00
2016-09-24T10:57:10.840Z,43.00
2016-09-24T10:58:11.752Z,46.00
2016-09-24T10:59:11.833Z,47.00
2016-09-24T11:00:12.313Z,47.00
2016-09-24T11:01:12.809Z,48.00
2016-09-24T11:02:13.611Z,48.00
2016-09-24T11:03:14.272Z,48.00
2016-09-24T11:04:14.460Z,48.00
2016-09-24T11:05:15.122Z,47.00
2016-09-24T11:06:15.618Z,47.00
2016-09-24T11:07:15.956Z,47.00
2016-09-24T11:08:16.775Z,48.00
2016-09-24T11:09:17.135Z,47.00
2016-09-24T11:10:17.495Z,47.00
2016-09-24T11:11:19.470Z,48.00
2016-09-24T11:12:18.471Z,50.00
2016-09-24T11:13:19.099Z,50.00
2016-09-24T11:14:19.606Z,50.00
2016-09-24T11:15:20.125Z,50.00
2016-09-24T11:16:20.610Z,50.00
2016-09-24T11:17:21.257Z,51.00
2016-09-24T11:18:21.906Z,51.00
2016-09-24T11:19:21.838Z,51.00
2016-09-24T11:20:22.608Z,51.00
2016-09-24T11:21:23.108Z,52.00
2016-09-24T11:22:23.465Z,52.00
2016-09-24T11:23:24.119Z,52.00
2016-09-24T11:24:24.605Z,52.00
2016-09-24T11:25:25.166Z,53.00
2016-09-24T11:26:25.358Z,53.00
2016-09-24T11:27:25.814Z,53.00
2016-09-24T11:28:26.478Z,54.00
2016-09-24T11:29:27.123Z,54.00
2016-09-24T11:30:27.782Z,55.00
2016-09-24T11:31:28.254Z,55.00
2016-09-24T11:32:28.925Z,54.00
2016-09-24T11:33:29.112Z,30.00
2016-09-24T11:34:29.631Z,51.00
2016-09-24T11:35:30.252Z,42.00
2016-09-24T11:36:30.301Z,52.00
2016-09-24T11:37:30.963Z,54.00
2016-09-24T11:38:31.901Z,55.00
2016-09-24T11:39:32.265Z,55.00
2016-09-24T11:40:32.749Z,26.00
2016-09-24T11:41:32.976Z,27.00
2016-09-24T11:42:33.475Z,30.00
2016-09-24T11:43:34.248Z,52.00
2016-09-24T11:44:34.623Z,57.00
2016-09-24T11:45:35.107Z,57.00
2016-09-24T11:46:35.595Z,57.00
2016-09-24T11:47:36.261Z,50.00
2016-09-24T11:48:36.318Z,29.00
2016-09-24T11:49:37.240Z,37.00
2016-09-24T11:50:37.594Z,58.00
2016-09-24T11:51:38.261Z,30.00
2016-09-24T11:52:38.601Z,59.00
2016-09-24T11:53:39.429Z,62.00
2016-09-24T11:54:39.625Z,63.00
2016-09-24T11:55:39.954Z,63.00
2016-09-24T11:56:40.630Z,33.00
2016-09-24T11:57:40.961Z,33.00
2016-09-24T11:58:41.623Z,56.00
2016-09-24T11:59:42.269Z,65.00
2016-09-24T12:00:42.599Z,65.00
2016-09-24T12:01:43.108Z,66.00
2016-09-24T12:02:43.600Z,65.00
2016-09-24T12:03:44.277Z,65.00
2016-09-24T12:04:44.756Z,35.00
2016-09-24T12:05:44.947Z,47.00
2016-09-24T12:06:45.610Z,62.00
2016-09-24T12:07:45.947Z,66.00
2016-09-24T12:08:46.480Z,66.00
2016-09-24T12:09:47.118Z,66.00
2016-09-24T12:10:47.770Z,57.00
2016-09-24T12:11:47.944Z,64.00
2016-09-24T12:12:48.771Z,49.00
2016-09-24T12:13:48.970Z,28.00
2016-09-24T12:14:49.614Z,27.00
2016-09-24T12:15:50.253Z,28.00
2016-09-24T12:16:50.594Z,29.00
2016-09-24T12:17:51.099Z,32.00
2016-09-24T12:18:51.609Z,29.00
2016-09-24T12:19:51.941Z,26.00
2016-09-24T12:20:52.608Z,30.00
2016-09-24T12:21:53.405Z,59.00
2016-09-24T12:22:53.604Z,60.00
2016-09-24T12:23:53.812Z,60.00
2016-09-24T12:24:54.326Z,26.00
2016-09-24T12:25:55.099Z,60.00
2016-09-24T12:26:55.468Z,63.00
2016-09-24T12:27:56.088Z,66.00
2016-09-24T12:28:56.463Z,67.00
2016-09-24T12:29:58.290Z,70.00
2016-09-24T12:30:57.448Z,70.00
2016-09-24T12:31:57.959Z,72.00
2016-09-24T12:32:58.701Z,73.00
2016-09-24T12:33:58.818Z,72.00
2016-09-24T12:34:59.444Z,72.00
2016-09-24T12:36:00.096Z,72.00
2016-09-24T12:37:00.290Z,71.00
2016-09-24T12:38:00.945Z,67.00
2016-09-24T12:39:01.739Z,69.00
2016-09-24T12:40:01.790Z,70.00
2016-09-24T12:41:02.585Z,72.00
2016-09-24T12:42:02.966Z,69.00
2016-09-24T12:43:03.483Z,71.00
2016-09-24T12:44:04.236Z,69.00
2016-09-24T12:45:05.038Z,71.00
2016-09-24T12:46:05.088Z,72.00
2016-09-24T12:47:05.762Z,73.00
2016-09-24T12:48:07.289Z,72.00
2016-09-24T12:49:06.429Z,73.00
2016-09-24T12:50:06.940Z,75.00
2016-09-24T12:51:07.434Z,75.00
2016-09-24T12:52:07.977Z,68.00
2016-09-24T12:53:08.634Z,67.00
2016-09-24T12:54:08.942Z,71.00
2016-09-24T12:55:09.748Z,44.00
2016-09-24T12:56:10.102Z,63.00
2016-09-24T12:57:10.303Z,66.00
2016-09-24T12:58:10.925Z,71.00
2016-09-24T12:59:11.749Z,72.00
2016-09-24T13:00:11.948Z,69.00
2016-09-24T13:01:12.279Z,71.00
2016-09-24T13:02:12.927Z,73.00
2016-09-24T13:03:13.429Z,75.00
2016-09-24T13:04:14.072Z,76.00
2016-09-24T13:05:14.724Z,77.00
2016-09-24T13:06:14.792Z,78.00
2016-09-24T13:07:15.752Z,79.00
2016-09-24T13:08:15.786Z,80.00
2016-09-24T13:09:16.481Z,78.00
2016-09-24T13:10:17.110Z,78.00
2016-09-24T13:11:17.610Z,77.00
2016-09-24T13:12:18.086Z,80.00
2016-09-24T13:13:18.589Z,81.00
2016-09-24T13:14:19.086Z,81.00
2016-09-24T13:15:19.601Z,80.00
2016-09-24T13:16:20.106Z,81.00
2016-09-24T13:17:20.575Z,82.00
2016-09-24T13:18:21.674Z,82.00
2016-09-24T13:19:21.427Z,79.00
2016-09-24T13:20:21.794Z,78.00
2016-09-24T13:21:22.721Z,80.00
2016-09-24T13:22:22.933Z,80.00
2016-09-24T13:23:23.442Z,81.00
2016-09-24T13:24:24.079Z,81.00
2016-09-24T13:25:24.587Z,29.00
2016-09-24T13:26:25.075Z,47.00
2016-09-24T13:27:25.718Z,81.00
2016-09-24T13:28:25.935Z,84.00
2016-09-24T13:29:26.720Z,86.00
2016-09-24T13:30:27.090Z,87.00
2016-09-24T13:31:27.565Z,87.00
2016-09-24T13:32:28.516Z,87.00
2016-09-24T13:33:28.570Z,83.00
2016-09-24T13:34:29.363Z,84.00
2016-09-24T13:35:29.741Z,84.00